VLG9W LEZL-LPPT
Flight info
| Callsign | VLG9W |
|---|---|
| Flight time | 0h 52m |
| Altitude | 36000 |
| Route | ONUBA DCT NAPES DCT OSLEP DCT MINTA DCT VATZI |
| Aircraft | A321/M-SDE3FGHIRWY/LB1 |
Departure
| Time | 2026-04-21 10:26 |
|---|---|
| Airport | Seville Airport (LEZL) |
Arrival
| Time | 2026-04-21 11:19 |
|---|---|
| Airport | Lisbon Humberto Delgado Airport (LPPT) |
| Time | Latitude | Longitude | Altitude | Speed | Heading |
|---|---|---|---|---|---|
| 2026-04-21 10:12 | 37.42191 | -5.89731 | 93 ft | 0 kts | 315° |
| 2026-04-21 10:19 | 37.42195 | -5.89737 | 93 ft | 2 kts | 315° |
| 2026-04-21 10:20 | 37.42207 | -5.89751 | 96 ft | 3 kts | 315° |
| 2026-04-21 10:20 | 37.42222 | -5.89779 | 93 ft | 5 kts | 288° |
| 2026-04-21 10:20 | 37.42213 | -5.89820 | 96 ft | 5 kts | 240° |
| 2026-04-21 10:20 | 37.42188 | -5.89854 | 94 ft | 6 kts | 226° |
| 2026-04-21 10:21 | 37.42160 | -5.89889 | 95 ft | 6 kts | 224° |
| 2026-04-21 10:21 | 37.42130 | -5.89925 | 96 ft | 6 kts | 224° |
| 2026-04-21 10:21 | 37.42096 | -5.89966 | 96 ft | 7 kts | 218° |
| 2026-04-21 10:21 | 37.42050 | -5.90011 | 95 ft | 9 kts | 242° |
| 2026-04-21 10:22 | 37.42033 | -5.90087 | 97 ft | 9 kts | 219° |
| 2026-04-21 10:22 | 37.41986 | -5.90123 | 97 ft | 8 kts | 240° |
| 2026-04-21 10:22 | 37.41978 | -5.90203 | 97 ft | 11 kts | 266° |
| 2026-04-21 10:22 | 37.41977 | -5.90309 | 95 ft | 14 kts | 269° |
| 2026-04-21 10:23 | 37.41977 | -5.90444 | 93 ft | 17 kts | 271° |
| 2026-04-21 10:23 | 37.41978 | -5.90600 | 92 ft | 18 kts | 270° |
| 2026-04-21 10:23 | 37.41978 | -5.90770 | 88 ft | 22 kts | 270° |
| 2026-04-21 10:23 | 37.41977 | -5.90978 | 82 ft | 25 kts | 269° |
| 2026-04-21 10:24 | 37.41976 | -5.91204 | 82 ft | 26 kts | 270° |
| 2026-04-21 10:24 | 37.41961 | -5.91279 | 83 ft | 0 kts | 234° |
| 2026-04-21 10:24 | 37.41938 | -5.91306 | 81 ft | 9 kts | 214° |
| 2026-04-21 10:25 | 37.41877 | -5.91295 | 84 ft | 10 kts | 144° |
| 2026-04-21 10:25 | 37.41830 | -5.91234 | 84 ft | 10 kts | 132° |
| 2026-04-21 10:25 | 37.41789 | -5.91154 | 84 ft | 13 kts | 102° |
| 2026-04-21 10:25 | 37.41792 | -5.90876 | 87 ft | 65 kts | 90° |
| 2026-04-21 10:26 | 37.41792 | -5.90125 | 93 ft | 125 kts | 89° |
| 2026-04-21 10:26 | 37.41793 | -5.88996 | 128 ft | 167 kts | 87° |
| 2026-04-21 10:26 | 37.41819 | -5.87724 | 652 ft | 168 kts | 87° |
| 2026-04-21 10:26 | 37.41800 | -5.86265 | 1431 ft | 168 kts | 91° |
| 2026-04-21 10:27 | 37.41759 | -5.84717 | 1907 ft | 186 kts | 94° |
| 2026-04-21 10:27 | 37.41696 | -5.83002 | 2187 ft | 206 kts | 100° |
| 2026-04-21 10:27 | 37.41160 | -5.81327 | 2758 ft | 209 kts | 129° |
| 2026-04-21 10:27 | 37.40070 | -5.80141 | 3435 ft | 210 kts | 154° |
| 2026-04-21 10:28 | 37.38658 | -5.79712 | 4108 ft | 213 kts | 181° |
| 2026-04-21 10:28 | 37.37229 | -5.80179 | 4836 ft | 217 kts | 208° |
| 2026-04-21 10:28 | 37.36123 | -5.81485 | 5543 ft | 225 kts | 236° |
| 2026-04-21 10:28 | 37.35541 | -5.83309 | 6272 ft | 229 kts | 246° |
| 2026-04-21 10:29 | 37.34840 | -5.85085 | 6997 ft | 226 kts | 232° |
| 2026-04-21 10:29 | 37.33833 | -5.86582 | 7769 ft | 223 kts | 225° |
| 2026-04-21 10:29 | 37.32764 | -5.87992 | 8525 ft | 223 kts | 224° |
| 2026-04-21 10:29 | 37.31685 | -5.89406 | 9241 ft | 226 kts | 224° |
| 2026-04-21 10:30 | 37.30595 | -5.90831 | 9972 ft | 227 kts | 225° |
| 2026-04-21 10:30 | 37.29501 | -5.92260 | 10673 ft | 227 kts | 225° |
| 2026-04-21 10:30 | 37.28405 | -5.93692 | 11374 ft | 228 kts | 225° |
| 2026-04-21 10:30 | 37.27309 | -5.95125 | 12086 ft | 228 kts | 225° |
| 2026-04-21 10:31 | 37.26564 | -5.96101 | 12562 ft | 229 kts | 225° |
| 2026-04-21 10:31 | 37.25102 | -5.98013 | 13473 ft | 230 kts | 225° |
| 2026-04-21 10:31 | 37.24053 | -5.99585 | 13857 ft | 245 kts | 235° |
| 2026-04-21 10:31 | 37.23272 | -6.01606 | 13998 ft | 271 kts | 249° |
| 2026-04-21 10:32 | 37.22977 | -6.03181 | 14085 ft | 290 kts | 258° |
| 2026-04-21 10:32 | 37.22986 | -6.05828 | 14212 ft | 318 kts | 275° |
| 2026-04-21 10:32 | 37.23462 | -6.08637 | 14334 ft | 340 kts | 278° |
| 2026-04-21 10:32 | 37.23985 | -6.11632 | 14478 ft | 360 kts | 277° |
| 2026-04-21 10:33 | 37.24528 | -6.14769 | 14723 ft | 374 kts | 277° |
| 2026-04-21 10:33 | 37.25087 | -6.17989 | 15270 ft | 379 kts | 277° |
| 2026-04-21 10:33 | 37.25652 | -6.21236 | 15864 ft | 383 kts | 278° |
| 2026-04-21 10:33 | 37.26224 | -6.24525 | 16476 ft | 387 kts | 278° |
| 2026-04-21 10:34 | 37.26799 | -6.27846 | 17056 ft | 392 kts | 278° |
| 2026-04-21 10:34 | 37.27378 | -6.31203 | 17649 ft | 396 kts | 278° |
| 2026-04-21 10:34 | 37.27960 | -6.34601 | 18221 ft | 400 kts | 278° |
| 2026-04-21 10:34 | 37.28542 | -6.38021 | 18719 ft | 403 kts | 278° |
| 2026-04-21 10:35 | 37.29133 | -6.41477 | 19235 ft | 406 kts | 277° |
| 2026-04-21 10:35 | 37.29482 | -6.44989 | 19728 ft | 404 kts | 267° |
| 2026-04-21 10:35 | 37.29132 | -6.49603 | 20391 ft | 401 kts | 254° |
| 2026-04-21 10:35 | 37.28737 | -6.51927 | 20709 ft | 403 kts | 254° |
| 2026-04-21 10:36 | 37.28156 | -6.55340 | 21200 ft | 406 kts | 254° |
| 2026-04-21 10:36 | 37.27558 | -6.58865 | 21689 ft | 408 kts | 254° |
| 2026-04-21 10:36 | 37.26975 | -6.62323 | 22151 ft | 411 kts | 254° |
| 2026-04-21 10:36 | 37.26381 | -6.65857 | 22609 ft | 414 kts | 255° |
| 2026-04-21 10:37 | 37.25783 | -6.69406 | 23069 ft | 416 kts | 254° |
| 2026-04-21 10:37 | 37.25177 | -6.72980 | 23501 ft | 419 kts | 254° |
| 2026-04-21 10:37 | 37.24567 | -6.76573 | 23879 ft | 421 kts | 254° |
| 2026-04-21 10:37 | 37.23930 | -6.80170 | 24266 ft | 423 kts | 253° |
| 2026-04-21 10:38 | 37.23262 | -6.83777 | 24658 ft | 425 kts | 253° |
| 2026-04-21 10:38 | 37.22576 | -6.87395 | 25042 ft | 428 kts | 253° |
| 2026-04-21 10:38 | 37.21879 | -6.91033 | 25399 ft | 430 kts | 253° |
| 2026-04-21 10:38 | 37.21179 | -6.94685 | 25754 ft | 432 kts | 253° |
| 2026-04-21 10:39 | 37.20481 | -6.98353 | 26117 ft | 434 kts | 253° |
| 2026-04-21 10:39 | 37.19781 | -7.02061 | 26491 ft | 436 kts | 253° |
| 2026-04-21 10:39 | 37.19093 | -7.05722 | 26850 ft | 438 kts | 253° |
| 2026-04-21 10:39 | 37.18390 | -7.09454 | 27210 ft | 440 kts | 253° |
| 2026-04-21 10:40 | 37.17682 | -7.13192 | 27564 ft | 442 kts | 253° |
| 2026-04-21 10:40 | 37.16969 | -7.16942 | 28050 ft | 440 kts | 253° |
| 2026-04-21 10:40 | 37.16260 | -7.20664 | 28555 ft | 439 kts | 253° |
| 2026-04-21 10:40 | 37.15553 | -7.24376 | 29072 ft | 437 kts | 252° |
| 2026-04-21 10:41 | 37.14853 | -7.28066 | 29558 ft | 436 kts | 252° |
| 2026-04-21 10:41 | 37.14152 | -7.31774 | 30023 ft | 435 kts | 254° |
| 2026-04-21 10:41 | 37.13751 | -7.35549 | 30427 ft | 439 kts | 263° |
| 2026-04-21 10:41 | 37.13872 | -7.39383 | 30841 ft | 444 kts | 273° |
| 2026-04-21 10:42 | 37.14526 | -7.43185 | 31260 ft | 449 kts | 282° |
| 2026-04-21 10:42 | 37.15648 | -7.46860 | 31680 ft | 451 kts | 287° |
| 2026-04-21 10:42 | 37.16837 | -7.50487 | 32112 ft | 449 kts | 287° |
| 2026-04-21 10:42 | 37.18017 | -7.54099 | 32544 ft | 447 kts | 287° |
| 2026-04-21 10:43 | 37.19188 | -7.57712 | 32976 ft | 445 kts | 287° |
| 2026-04-21 10:43 | 37.20341 | -7.61292 | 33440 ft | 443 kts | 286° |
| 2026-04-21 10:43 | 37.21494 | -7.64883 | 33818 ft | 443 kts | 286° |
| 2026-04-21 10:43 | 37.22641 | -7.68456 | 34149 ft | 442 kts | 286° |
| 2026-04-21 10:44 | 37.23794 | -7.72048 | 34474 ft | 442 kts | 286° |
| 2026-04-21 10:44 | 37.24940 | -7.75623 | 34804 ft | 441 kts | 286° |
| 2026-04-21 10:44 | 37.26082 | -7.79192 | 35121 ft | 441 kts | 286° |
| 2026-04-21 10:44 | 37.27226 | -7.82762 | 35448 ft | 440 kts | 286° |
| 2026-04-21 10:45 | 37.28367 | -7.86321 | 35753 ft | 440 kts | 286° |
| 2026-04-21 10:45 | 37.30656 | -7.93464 | 35822 ft | 441 kts | 286° |
| 2026-04-21 10:46 | 37.32937 | -8.00622 | 35822 ft | 441 kts | 286° |
| 2026-04-21 10:46 | 37.35212 | -8.07784 | 35811 ft | 441 kts | 286° |
| 2026-04-21 10:47 | 37.37482 | -8.14958 | 35807 ft | 441 kts | 285° |
| 2026-04-21 10:47 | 37.39728 | -8.22078 | 35803 ft | 441 kts | 285° |
| 2026-04-21 10:48 | 37.41989 | -8.29248 | 35807 ft | 442 kts | 285° |
| 2026-04-21 10:48 | 37.44255 | -8.36431 | 35838 ft | 443 kts | 285° |
| 2026-04-21 10:49 | 37.46524 | -8.43679 | 35819 ft | 444 kts | 285° |
| 2026-04-21 10:49 | 37.48792 | -8.50917 | 35549 ft | 445 kts | 285° |
| 2026-04-21 10:49 | 37.49928 | -8.54551 | 34430 ft | 450 kts | 285° |
| 2026-04-21 10:50 | 37.51068 | -8.58203 | 33773 ft | 443 kts | 285° |
| 2026-04-21 10:50 | 37.52196 | -8.61813 | 32893 ft | 440 kts | 285° |
| 2026-04-21 10:50 | 37.53296 | -8.65325 | 32145 ft | 434 kts | 285° |
| 2026-04-21 10:50 | 37.54405 | -8.68879 | 31303 ft | 431 kts | 284° |
| 2026-04-21 10:51 | 37.55497 | -8.72406 | 30480 ft | 432 kts | 284° |
| 2026-04-21 10:51 | 37.56592 | -8.75973 | 29509 ft | 439 kts | 285° |
| 2026-04-21 10:51 | 37.57766 | -8.79493 | 28731 ft | 445 kts | 292° |
| 2026-04-21 10:51 | 37.59459 | -8.82758 | 28452 ft | 445 kts | 303° |
| 2026-04-21 10:52 | 37.61626 | -8.85549 | 28172 ft | 449 kts | 315° |
| 2026-04-21 10:52 | 37.64231 | -8.87786 | 27922 ft | 456 kts | 327° |
| 2026-04-21 10:52 | 37.67173 | -8.89336 | 27611 ft | 461 kts | 338° |
| 2026-04-21 10:52 | 37.70231 | -8.90578 | 27091 ft | 459 kts | 338° |
| 2026-04-21 10:53 | 37.73252 | -8.91791 | 26597 ft | 455 kts | 338° |
| 2026-04-21 10:53 | 37.76264 | -8.93000 | 26095 ft | 452 kts | 338° |
| 2026-04-21 10:53 | 37.79208 | -8.94189 | 25609 ft | 449 kts | 338° |
| 2026-04-21 10:53 | 37.82211 | -8.95409 | 25108 ft | 445 kts | 338° |
| 2026-04-21 10:54 | 37.85155 | -8.96610 | 24624 ft | 443 kts | 338° |
| 2026-04-21 10:54 | 37.88045 | -8.97795 | 24138 ft | 441 kts | 338° |
| 2026-04-21 10:54 | 37.90937 | -8.98986 | 23818 ft | 436 kts | 338° |
| 2026-04-21 10:54 | 37.93832 | -9.00178 | 23424 ft | 435 kts | 338° |
| 2026-04-21 10:55 | 37.96764 | -9.00991 | 23300 ft | 429 kts | 352° |
| 2026-04-21 10:55 | 37.99710 | -9.00936 | 23143 ft | 420 kts | 7° |
| 2026-04-21 10:55 | 38.02506 | -9.00069 | 22982 ft | 410 kts | 21° |
| 2026-04-21 10:55 | 38.05044 | -8.98481 | 22577 ft | 403 kts | 35° |
| 2026-04-21 10:56 | 38.07378 | -8.96517 | 22112 ft | 401 kts | 35° |
| 2026-04-21 10:56 | 38.09694 | -8.94563 | 21610 ft | 401 kts | 35° |
| 2026-04-21 10:56 | 38.12014 | -8.92612 | 21239 ft | 397 kts | 35° |
| 2026-04-21 10:56 | 38.14297 | -8.90692 | 20808 ft | 395 kts | 35° |
| 2026-04-21 10:57 | 38.16592 | -8.88760 | 20419 ft | 391 kts | 35° |
| 2026-04-21 10:57 | 38.18837 | -8.86871 | 20050 ft | 388 kts | 34° |
| 2026-04-21 10:57 | 38.21085 | -8.84980 | 19677 ft | 385 kts | 34° |
| 2026-04-21 10:57 | 38.23316 | -8.83105 | 19305 ft | 383 kts | 34° |
| 2026-04-21 10:58 | 38.25535 | -8.81236 | 18933 ft | 381 kts | 34° |
| 2026-04-21 10:58 | 38.27741 | -8.79376 | 18563 ft | 380 kts | 34° |
| 2026-04-21 10:58 | 38.29938 | -8.77520 | 18195 ft | 378 kts | 34° |
| 2026-04-21 10:58 | 38.32114 | -8.75682 | 17803 ft | 376 kts | 34° |
| 2026-04-21 10:59 | 38.34304 | -8.73834 | 17435 ft | 375 kts | 34° |
| 2026-04-21 10:59 | 38.36432 | -8.72037 | 17104 ft | 372 kts | 34° |
| 2026-04-21 10:59 | 38.38584 | -8.70214 | 16706 ft | 370 kts | 34° |
| 2026-04-21 10:59 | 38.40727 | -8.68391 | 16357 ft | 369 kts | 35° |
| 2026-04-21 11:00 | 38.42866 | -8.66572 | 15999 ft | 368 kts | 34° |
| 2026-04-21 11:00 | 38.44993 | -8.64766 | 15647 ft | 367 kts | 35° |
| 2026-04-21 11:00 | 38.47113 | -8.62967 | 15296 ft | 365 kts | 35° |
| 2026-04-21 11:00 | 38.49223 | -8.61172 | 14932 ft | 364 kts | 35° |
| 2026-04-21 11:01 | 38.51325 | -8.59385 | 14640 ft | 360 kts | 35° |
| 2026-04-21 11:01 | 38.53427 | -8.57729 | 14518 ft | 350 kts | 25° |
| 2026-04-21 11:01 | 38.55692 | -8.56719 | 14318 ft | 341 kts | 9° |
| 2026-04-21 11:02 | 38.60351 | -8.56441 | 13707 ft | 334 kts | 355° |
| 2026-04-21 11:02 | 38.62667 | -8.56432 | 13377 ft | 332 kts | 355° |
| 2026-04-21 11:02 | 38.64973 | -8.56417 | 13063 ft | 330 kts | 355° |
| 2026-04-21 11:02 | 38.67262 | -8.56399 | 12760 ft | 328 kts | 356° |
| 2026-04-21 11:03 | 38.69542 | -8.56382 | 12459 ft | 326 kts | 356° |
| 2026-04-21 11:03 | 38.71801 | -8.56369 | 12157 ft | 325 kts | 356° |
| 2026-04-21 11:03 | 38.74063 | -8.56358 | 11851 ft | 323 kts | 357° |
| 2026-04-21 11:03 | 38.76282 | -8.56347 | 11562 ft | 322 kts | 357° |
| 2026-04-21 11:04 | 38.78521 | -8.56334 | 11259 ft | 322 kts | 358° |
| 2026-04-21 11:04 | 38.80758 | -8.56321 | 10966 ft | 321 kts | 358° |
| 2026-04-21 11:04 | 38.82980 | -8.56309 | 10666 ft | 319 kts | 358° |
| 2026-04-21 11:04 | 38.85191 | -8.56294 | 10372 ft | 317 kts | 358° |
| 2026-04-21 11:05 | 38.87391 | -8.56279 | 10083 ft | 315 kts | 359° |
| 2026-04-21 11:05 | 38.89579 | -8.56265 | 9789 ft | 313 kts | 359° |
| 2026-04-21 11:05 | 38.91761 | -8.56249 | 9472 ft | 311 kts | 359° |
| 2026-04-21 11:05 | 38.93903 | -8.56371 | 9194 ft | 307 kts | 347° |
| 2026-04-21 11:06 | 38.95910 | -8.57184 | 8907 ft | 300 kts | 329° |
| 2026-04-21 11:06 | 38.97628 | -8.58634 | 8631 ft | 292 kts | 311° |
| 2026-04-21 11:06 | 38.98989 | -8.60533 | 8343 ft | 287 kts | 302° |
| 2026-04-21 11:06 | 39.00267 | -8.62496 | 8071 ft | 286 kts | 303° |
| 2026-04-21 11:07 | 39.01538 | -8.64426 | 7933 ft | 279 kts | 303° |
| 2026-04-21 11:07 | 39.02811 | -8.66367 | 7821 ft | 290 kts | 303° |
| 2026-04-21 11:07 | 39.04124 | -8.68378 | 7689 ft | 294 kts | 304° |
| 2026-04-21 11:07 | 39.05445 | -8.70396 | 7572 ft | 295 kts | 304° |
| 2026-04-21 11:08 | 39.06715 | -8.72445 | 7463 ft | 285 kts | 293° |
| 2026-04-21 11:08 | 39.07242 | -8.74721 | 7103 ft | 252 kts | 256° |
| 2026-04-21 11:08 | 39.06712 | -8.76663 | 6625 ft | 220 kts | 220° |
| 2026-04-21 11:08 | 39.05628 | -8.78002 | 6043 ft | 216 kts | 213° |
| 2026-04-21 11:09 | 39.04526 | -8.79306 | 5825 ft | 218 kts | 217° |
| 2026-04-21 11:09 | 39.03727 | -8.81031 | 5593 ft | 232 kts | 238° |
| 2026-04-21 11:09 | 39.03132 | -8.82966 | 5331 ft | 232 kts | 238° |
| 2026-04-21 11:09 | 39.02542 | -8.84860 | 5082 ft | 231 kts | 238° |
| 2026-04-21 11:10 | 39.01943 | -8.86776 | 4822 ft | 230 kts | 238° |
| 2026-04-21 11:10 | 39.01338 | -8.88704 | 4559 ft | 228 kts | 238° |
| 2026-04-21 11:10 | 39.00769 | -8.90531 | 4431 ft | 216 kts | 238° |
| 2026-04-21 11:10 | 39.00236 | -8.92269 | 4358 ft | 195 kts | 238° |
| 2026-04-21 11:11 | 38.99771 | -8.93797 | 4272 ft | 172 kts | 237° |
| 2026-04-21 11:11 | 38.99354 | -8.95155 | 4232 ft | 156 kts | 235° |
| 2026-04-21 11:11 | 38.98954 | -8.96425 | 4191 ft | 153 kts | 235° |
| 2026-04-21 11:11 | 38.98555 | -8.97681 | 4161 ft | 150 kts | 235° |
| 2026-04-21 11:12 | 38.98184 | -8.98874 | 4081 ft | 139 kts | 234° |
| 2026-04-21 11:12 | 38.97825 | -9.00015 | 3973 ft | 136 kts | 234° |
| 2026-04-21 11:12 | 38.97471 | -9.01139 | 3865 ft | 135 kts | 233° |
| 2026-04-21 11:12 | 38.97133 | -9.02213 | 3761 ft | 134 kts | 233° |
| 2026-04-21 11:13 | 38.96653 | -9.03209 | 3658 ft | 125 kts | 216° |
| 2026-04-21 11:13 | 38.95940 | -9.03817 | 3559 ft | 127 kts | 201° |
| 2026-04-21 11:13 | 38.95139 | -9.04351 | 3475 ft | 130 kts | 200° |
| 2026-04-21 11:13 | 38.94317 | -9.04849 | 3401 ft | 130 kts | 198° |
| 2026-04-21 11:14 | 38.93477 | -9.05329 | 3280 ft | 134 kts | 198° |
| 2026-04-21 11:14 | 38.92626 | -9.05803 | 3130 ft | 133 kts | 198° |
| 2026-04-21 11:14 | 38.91788 | -9.06261 | 2948 ft | 131 kts | 199° |
| 2026-04-21 11:14 | 38.90943 | -9.06718 | 2791 ft | 132 kts | 199° |
| 2026-04-21 11:15 | 38.90093 | -9.07177 | 2607 ft | 131 kts | 199° |
| 2026-04-21 11:15 | 38.89253 | -9.07629 | 2446 ft | 130 kts | 200° |
| 2026-04-21 11:15 | 38.88426 | -9.08074 | 2277 ft | 131 kts | 200° |
| 2026-04-21 11:15 | 38.87858 | -9.08379 | 2156 ft | 130 kts | 200° |
| 2026-04-21 11:16 | 38.86747 | -9.08975 | 1928 ft | 130 kts | 200° |
| 2026-04-21 11:16 | 38.86190 | -9.09274 | 1828 ft | 128 kts | 199° |
| 2026-04-21 11:16 | 38.85100 | -9.09859 | 1599 ft | 128 kts | 201° |
| 2026-04-21 11:16 | 38.84275 | -9.10302 | 1429 ft | 128 kts | 201° |
| 2026-04-21 11:17 | 38.83735 | -9.10591 | 1345 ft | 128 kts | 200° |
| 2026-04-21 11:17 | 38.82897 | -9.11040 | 1168 ft | 128 kts | 200° |
| 2026-04-21 11:17 | 38.82063 | -9.11487 | 989 ft | 132 kts | 201° |
| 2026-04-21 11:17 | 38.81230 | -9.11933 | 813 ft | 130 kts | 200° |
| 2026-04-21 11:18 | 38.80402 | -9.12377 | 645 ft | 131 kts | 201° |
| 2026-04-21 11:18 | 38.79559 | -9.12828 | 469 ft | 132 kts | 202° |
| 2026-04-21 11:18 | 38.78814 | -9.13226 | 363 ft | 128 kts | 201° |
| 2026-04-21 11:18 | 38.78089 | -9.13613 | 355 ft | 95 kts | 203° |
| 2026-04-21 11:19 | 38.77673 | -9.13837 | 349 ft | 39 kts | 202° |
| 2026-04-21 11:19 | 38.77457 | -9.13899 | 344 ft | 27 kts | 180° |
| 2026-04-21 11:19 | 38.77348 | -9.13895 | 347 ft | 14 kts | 178° |
| 2026-04-21 11:19 | 38.77268 | -9.13888 | 348 ft | 3 kts | 165° |
| 2026-04-21 11:20 | 38.77249 | -9.13880 | 346 ft | 3 kts | 167° |
| 2026-04-21 11:20 | 38.77225 | -9.13879 | 350 ft | 4 kts | 182° |
| 2026-04-21 11:20 | 38.77193 | -9.13883 | 348 ft | 5 kts | 188° |
| 2026-04-21 11:20 | 38.77158 | -9.13891 | 350 ft | 4 kts | 195° |
| 2026-04-21 11:21 | 38.77126 | -9.13905 | 354 ft | 6 kts | 196° |
| 2026-04-21 11:21 | 38.77084 | -9.13901 | 346 ft | 6 kts | 167° |
| 2026-04-21 11:21 | 38.77045 | -9.13888 | 349 ft | 8 kts | 166° |
| 2026-04-21 11:21 | 38.76987 | -9.13869 | 347 ft | 9 kts | 166° |
| 2026-04-21 11:22 | 38.76919 | -9.13851 | 350 ft | 11 kts | 169° |
| 2026-04-21 11:22 | 38.76895 | -9.13845 | 347 ft | 2 kts | 168° |
| 2026-04-21 11:22 | 38.76876 | -9.13840 | 349 ft | 4 kts | 168° |
| 2026-04-21 11:22 | 38.76844 | -9.13832 | 353 ft | 6 kts | 168° |
| 2026-04-21 11:23 | 38.76797 | -9.13819 | 351 ft | 8 kts | 168° |